sensor_id;sensor_type;location;lat;lon;timestamp;pressure;altitude;pressure_sealevel;temperature
64904;BMP280;51401;48.882;12.598;2022-08-19T00:01:36;97052.38;;;20.93
64904;BMP280;51401;48.882;12.598;2022-08-19T00:04:05;97048.72;;;20.91
64904;BMP280;51401;48.882;12.598;2022-08-19T00:06:31;97054.53;;;20.95
64904;BMP280;51401;48.882;12.598;2022-08-19T00:08:57;97063.28;;;21.01
64904;BMP280;51401;48.882;12.598;2022-08-19T00:11:23;97066.44;;;21.04
64904;BMP280;51401;48.882;12.598;2022-08-19T00:13:52;97071.72;;;21.04
64904;BMP280;51401;48.882;12.598;2022-08-19T00:16:17;97080.59;;;21.07
64904;BMP280;51401;48.882;12.598;2022-08-19T00:18:46;97086.63;;;21.07
64904;BMP280;51401;48.882;12.598;2022-08-19T00:21:11;97102.72;;;21.09
64904;BMP280;51401;48.882;12.598;2022-08-19T00:23:37;97119.97;;;21.10
64904;BMP280;51401;48.882;12.598;2022-08-19T00:26:06;97136.31;;;21.14
64904;BMP280;51401;48.882;12.598;2022-08-19T00:28:32;97140.53;;;21.06
64904;BMP280;51401;48.882;12.598;2022-08-19T00:30:59;97143.16;;;21.06
64904;BMP280;51401;48.882;12.598;2022-08-19T00:33:24;97142.06;;;21.13
64904;BMP280;51401;48.882;12.598;2022-08-19T00:35:49;97140.88;;;21.14
64904;BMP280;51401;48.882;12.598;2022-08-19T00:38:15;97138.41;;;21.10
64904;BMP280;51401;48.882;12.598;2022-08-19T00:40:43;97137.00;;;21.09
64904;BMP280;51401;48.882;12.598;2022-08-19T00:43:12;97149.78;;;21.16
64904;BMP280;51401;48.882;12.598;2022-08-19T00:45:38;97155.06;;;21.16
64904;BMP280;51401;48.882;12.598;2022-08-19T00:48:06;97146.16;;;21.14
64904;BMP280;51401;48.882;12.598;2022-08-19T00:50:32;97143.69;;;21.10
64904;BMP280;51401;48.882;12.598;2022-08-19T00:52:58;97145.72;;;21.15
64904;BMP280;51401;48.882;12.598;2022-08-19T00:55:26;97157.06;;;21.21
64904;BMP280;51401;48.882;12.598;2022-08-19T00:58:01;97150.59;;;21.22
64904;BMP280;51401;48.882;12.598;2022-08-19T01:00:28;97154.69;;;21.23
64904;BMP280;51401;48.882;12.598;2022-08-19T01:02:54;97150.16;;;21.24
64904;BMP280;51401;48.882;12.598;2022-08-19T01:05:25;97136.69;;;21.22
64904;BMP280;51401;48.882;12.598;2022-08-19T01:07:53;97131.59;;;21.18
64904;BMP280;51401;48.882;12.598;2022-08-19T01:10:23;97123.16;;;21.14
64904;BMP280;51401;48.882;12.598;2022-08-19T01:12:51;97113.00;;;21.07
64904;BMP280;51401;48.882;12.598;2022-08-19T01:15:21;97118.56;;;21.09
64904;BMP280;51401;48.882;12.598;2022-08-19T01:17:48;97123.53;;;21.07
64904;BMP280;51401;48.882;12.598;2022-08-19T01:20:17;97125.25;;;21.10
64904;BMP280;51401;48.882;12.598;2022-08-19T01:22:54;97121.97;;;21.15
64904;BMP280;51401;48.882;12.598;2022-08-19T01:25:22;97103.06;;;21.17
64904;BMP280;51401;48.882;12.598;2022-08-19T01:27:50;97102.69;;;21.24
64904;BMP280;51401;48.882;12.598;2022-08-19T01:30:28;97096.88;;;21.20
64904;BMP280;51401;48.882;12.598;2022-08-19T01:32:54;97109.59;;;21.21
64904;BMP280;51401;48.882;12.598;2022-08-19T01:35:22;97100.59;;;21.28
64904;BMP280;51401;48.882;12.598;2022-08-19T01:38:22;97104.84;;;21.25
64904;BMP280;51401;48.882;12.598;2022-08-19T01:40:48;97125.88;;;21.20
64904;BMP280;51401;48.882;12.598;2022-08-19T01:43:14;97133.97;;;21.16
64904;BMP280;51401;48.882;12.598;2022-08-19T01:45:40;97128.53;;;21.20
64904;BMP280;51401;48.882;12.598;2022-08-19T01:48:06;97129.44;;;21.17
64904;BMP280;51401;48.882;12.598;2022-08-19T01:50:33;97131.59;;;21.18
64904;BMP280;51401;48.882;12.598;2022-08-19T01:53:00;97132.59;;;21.21
64904;BMP280;51401;48.882;12.598;2022-08-19T01:55:25;97136.69;;;21.22
64904;BMP280;51401;48.882;12.598;2022-08-19T01:57:55;97137.75;;;21.30
64904;BMP280;51401;48.882;12.598;2022-08-19T02:00:23;97144.16;;;21.23
64904;BMP280;51401;48.882;12.598;2022-08-19T02:02:48;97152.31;;;21.25
64904;BMP280;51401;48.882;12.598;2022-08-19T02:05:14;97156.16;;;21.24
64904;BMP280;51401;48.882;12.598;2022-08-19T02:07:43;97164.06;;;21.24
64904;BMP280;51401;48.882;12.598;2022-08-19T02:10:13;97155.25;;;21.27
64904;BMP280;51401;48.882;12.598;2022-08-19T02:12:39;97153.22;;;21.22
64904;BMP280;51401;48.882;12.598;2022-08-19T02:15:05;97135.50;;;21.23
64904;BMP280;51401;48.882;12.598;2022-08-19T02:17:31;97136.16;;;21.18
64904;BMP280;51401;48.882;12.598;2022-08-19T02:19:57;97136.63;;;21.16
64904;BMP280;51401;48.882;12.598;2022-08-19T02:22:23;97139.50;;;21.18
64904;BMP280;51401;48.882;12.598;2022-08-19T02:24:50;97139.06;;;21.20
64904;BMP280;51401;48.882;12.598;2022-08-19T02:27:16;97134.50;;;21.20
64904;BMP280;51401;48.882;12.598;2022-08-19T02:29:41;97122.78;;;21.21
64904;BMP280;51401;48.882;12.598;2022-08-19T02:32:07;97115.41;;;21.25
64904;BMP280;51401;48.882;12.598;2022-08-19T02:34:33;97115.41;;;21.25
64904;BMP280;51401;48.882;12.598;2022-08-19T02:36:59;97114.78;;;21.16
64904;BMP280;51401;48.882;12.598;2022-08-19T02:39:24;97107.59;;;21.16
64904;BMP280;51401;48.882;12.598;2022-08-19T02:41:49;97109.22;;;21.14
64904;BMP280;51401;48.882;12.598;2022-08-19T02:44:16;97101.97;;;21.09
64904;BMP280;51401;48.882;12.598;2022-08-19T02:46:42;97102.63;;;21.04
64904;BMP280;51401;48.882;12.598;2022-08-19T02:49:08;97110.53;;;21.04
64904;BMP280;51401;48.882;12.598;2022-08-19T02:51:36;97104.34;;;21.07
64904;BMP280;51401;48.882;12.598;2022-08-19T02:54:03;97103.44;;;21.10
64904;BMP280;51401;48.882;12.598;2022-08-19T02:56:30;97109.16;;;21.08
64904;BMP280;51401;48.882;12.598;2022-08-19T02:58:56;97111.09;;;21.08
64904;BMP280;51401;48.882;12.598;2022-08-19T03:01:31;97109.41;;;21.10
64904;BMP280;51401;48.882;12.598;2022-08-19T03:03:58;97116.88;;;21.12
64904;BMP280;51401;48.882;12.598;2022-08-19T03:06:25;97130.50;;;21.10
64904;BMP280;51401;48.882;12.598;2022-08-19T03:08:51;97133.88;;;21.11
64904;BMP280;51401;48.882;12.598;2022-08-19T03:11:22;97150.34;;;21.06
64904;BMP280;51401;48.882;12.598;2022-08-19T03:13:48;97151.25;;;21.03
64904;BMP280;51401;48.882;12.598;2022-08-19T03:16:17;97148.59;;;21.03
64904;BMP280;51401;48.882;12.598;2022-08-19T03:18:43;97153.84;;;20.98
64904;BMP280;51401;48.882;12.598;2022-08-19T03:21:08;97161.44;;;20.96
64904;BMP280;51401;48.882;12.598;2022-08-19T03:23:35;97166.53;;;20.99
64904;BMP280;51401;48.882;12.598;2022-08-19T03:26:04;97178.97;;;20.99
64904;BMP280;51401;48.882;12.598;2022-08-19T03:28:30;97175.91;;;21.00
64904;BMP280;51401;48.882;12.598;2022-08-19T03:31:10;97171.06;;;20.99
64904;BMP280;51401;48.882;12.598;2022-08-19T03:33:36;97163.16;;;20.99
64904;BMP280;51401;48.882;12.598;2022-08-19T03:36:14;97157.88;;;20.99
64904;BMP280;51401;48.882;12.598;2022-08-19T03:38:43;97157.44;;;21.00
64904;BMP280;51401;48.882;12.598;2022-08-19T03:41:12;97163.44;;;21.01
64904;BMP280;51401;48.882;12.598;2022-08-19T03:43:39;97159.09;;;20.98
64904;BMP280;51401;48.882;12.598;2022-08-19T03:46:07;97163.16;;;20.99
64904;BMP280;51401;48.882;12.598;2022-08-19T03:48:33;97165.25;;;20.95
64904;BMP280;51401;48.882;12.598;2022-08-19T03:50:59;97173.44;;;20.97
64904;BMP280;51401;48.882;12.598;2022-08-19T03:53:26;97172.00;;;20.96
64904;BMP280;51401;48.882;12.598;2022-08-19T03:55:52;97175.06;;;20.94
64904;BMP280;51401;48.882;12.598;2022-08-19T03:58:18;97187.81;;;20.96
64904;BMP280;51401;48.882;12.598;2022-08-19T04:00:44;97190.19;;;20.94
64904;BMP280;51401;48.882;12.598;2022-08-19T04:03:09;97197.81;;;20.92
64904;BMP280;51401;48.882;12.598;2022-08-19T04:05:34;97196.63;;;20.93
64904;BMP280;51401;48.882;12.598;2022-08-19T04:07:59;97206.28;;;20.96
64904;BMP280;51401;48.882;12.598;2022-08-19T04:10:26;97215.63;;;20.97
64904;BMP280;51401;48.882;12.598;2022-08-19T04:12:51;97220.91;;;20.97
64904;BMP280;51401;48.882;12.598;2022-08-19T04:15:16;97228.38;;;20.98
64904;BMP280;51401;48.882;12.598;2022-08-19T04:17:42;97230.81;;;21.02
64904;BMP280;51401;48.882;12.598;2022-08-19T04:20:07;97228.75;;;21.05
64904;BMP280;51401;48.882;12.598;2022-08-19T04:22:33;97215.28;;;21.04
64904;BMP280;51401;48.882;12.598;2022-08-19T04:24:58;97225.06;;;21.03
64904;BMP280;51401;48.882;12.598;2022-08-19T04:27:23;97223.09;;;20.98
64904;BMP280;51401;48.882;12.598;2022-08-19T04:29:48;97220.28;;;21.02
64904;BMP280;51401;48.882;12.598;2022-08-19T04:32:14;97220.00;;;21.00
64904;BMP280;51401;48.882;12.598;2022-08-19T04:34:40;97223.63;;;21.02
64904;BMP280;51401;48.882;12.598;2022-08-19T04:37:06;97236.97;;;20.99
64904;BMP280;51401;48.882;12.598;2022-08-19T04:39:38;97236.97;;;20.99
64904;BMP280;51401;48.882;12.598;2022-08-19T04:42:22;97231.44;;;20.97
64904;BMP280;51401;48.882;12.598;2022-08-19T04:45:08;97225.00;;;20.98
64904;BMP280;51401;48.882;12.598;2022-08-19T04:47:38;97221.16;;;20.99
64904;BMP280;51401;48.882;12.598;2022-08-19T04:50:05;97220.91;;;20.97
64904;BMP280;51401;48.882;12.598;2022-08-19T04:52:30;97220.59;;;20.95
64904;BMP280;51401;48.882;12.598;2022-08-19T04:54:57;97229.59;;;21.03
64904;BMP280;51401;48.882;12.598;2022-08-19T04:57:22;97222.00;;;21.04
64904;BMP280;51401;48.882;12.598;2022-08-19T04:59:48;97223.47;;;21.05
64904;BMP280;51401;48.882;12.598;2022-08-19T05:02:14;97223.25;;;21.09
64904;BMP280;51401;48.882;12.598;2022-08-19T05:04:39;97223.63;;;21.16
64904;BMP280;51401;48.882;12.598;2022-08-19T05:07:05;97231.81;;;21.18
64904;BMP280;51401;48.882;12.598;2022-08-19T05:09:31;97242.53;;;21.29
64904;BMP280;51401;48.882;12.598;2022-08-19T05:11:56;97235.72;;;21.37
64904;BMP280;51401;48.882;12.598;2022-08-19T05:14:22;97238.34;;;21.51
64904;BMP280;51401;48.882;12.598;2022-08-19T05:16:48;97244.31;;;21.52
64904;BMP280;51401;48.882;12.598;2022-08-19T05:19:13;97254.78;;;21.60
64904;BMP280;51401;48.882;12.598;2022-08-19T05:21:59;97254.25;;;21.57
64904;BMP280;51401;48.882;12.598;2022-08-19T05:24:43;97255.41;;;21.56
64904;BMP280;51401;48.882;12.598;2022-08-19T05:27:09;97258.03;;;21.56
64904;BMP280;51401;48.882;12.598;2022-08-19T05:29:34;97262.88;;;21.57
64904;BMP280;51401;48.882;12.598;2022-08-19T05:32:01;97269.16;;;21.59
64904;BMP280;51401;48.882;12.598;2022-08-19T05:34:27;97256.88;;;21.57
64904;BMP280;51401;48.882;12.598;2022-08-19T05:36:56;97260.25;;;21.57
64904;BMP280;51401;48.882;12.598;2022-08-19T05:39:24;97264.16;;;21.61
64904;BMP280;51401;48.882;12.598;2022-08-19T05:41:54;97257.16;;;21.58
64904;BMP280;51401;48.882;12.598;2022-08-19T05:44:23;97259.63;;;21.62
64904;BMP280;51401;48.882;12.598;2022-08-19T05:46:48;97256.50;;;21.63
64904;BMP280;51401;48.882;12.598;2022-08-19T05:49:15;97253.81;;;21.58
64904;BMP280;51401;48.882;12.598;2022-08-19T05:51:42;97250.97;;;21.61
64904;BMP280;51401;48.882;12.598;2022-08-19T05:54:08;97257.44;;;21.60
64904;BMP280;51401;48.882;12.598;2022-08-19T05:56:34;97254.13;;;21.65
64904;BMP280;51401;48.882;12.598;2022-08-19T05:59:04;97258.69;;;21.65
64904;BMP280;51401;48.882;12.598;2022-08-19T06:01:33;97257.44;;;21.60
64904;BMP280;51401;48.882;12.598;2022-08-19T06:03:58;97256.69;;;21.60
64904;BMP280;51401;48.882;12.598;2022-08-19T06:06:23;97246.75;;;21.69
64904;BMP280;51401;48.882;12.598;2022-08-19T06:08:49;97244.84;;;21.56
64904;BMP280;51401;48.882;12.598;2022-08-19T06:11:32;97242.34;;;21.47
64904;BMP280;51401;48.882;12.598;2022-08-19T06:14:03;97244.72;;;21.45
64904;BMP280;51401;48.882;12.598;2022-08-19T06:16:29;97243.81;;;21.48
64904;BMP280;51401;48.882;12.598;2022-08-19T06:18:59;97247.81;;;21.43
64904;BMP280;51401;48.882;12.598;2022-08-19T06:21:26;97240.34;;;21.42
64904;BMP280;51401;48.882;12.598;2022-08-19T06:23:53;97246.44;;;21.48
64904;BMP280;51401;48.882;12.598;2022-08-19T06:26:20;97246.94;;;21.52
64904;BMP280;51401;48.882;12.598;2022-08-19T06:28:47;97248.16;;;21.51
64904;BMP280;51401;48.882;12.598;2022-08-19T06:31:15;97251.19;;;21.44
64904;BMP280;51401;48.882;12.598;2022-08-19T06:33:42;97260.53;;;21.45
64904;BMP280;51401;48.882;12.598;2022-08-19T06:36:15;97256.16;;;21.42
64904;BMP280;51401;48.882;12.598;2022-08-19T06:38:41;97253.97;;;21.40
64904;BMP280;51401;48.882;12.598;2022-08-19T06:41:06;97251.66;;;21.42
64904;BMP280;51401;48.882;12.598;2022-08-19T06:43:31;97247.63;;;21.47
64904;BMP280;51401;48.882;12.598;2022-08-19T06:45:57;97240.78;;;21.55
64904;BMP280;51401;48.882;12.598;2022-08-19T06:48:24;97229.56;;;21.59
64904;BMP280;51401;48.882;12.598;2022-08-19T06:50:49;97228.69;;;21.62
64904;BMP280;51401;48.882;12.598;2022-08-19T06:53:16;97234.47;;;21.66
64904;BMP280;51401;48.882;12.598;2022-08-19T06:55:44;97244.66;;;21.73
64904;BMP280;51401;48.882;12.598;2022-08-19T06:58:10;97228.28;;;21.69
64904;BMP280;51401;48.882;12.598;2022-08-19T07:00:36;97232.38;;;21.70
64904;BMP280;51401;48.882;12.598;2022-08-19T07:03:01;97238.59;;;21.53
64904;BMP280;51401;48.882;12.598;2022-08-19T07:05:27;97227.78;;;21.51
64904;BMP280;51401;48.882;12.598;2022-08-19T07:07:52;97233.97;;;21.34
64904;BMP280;51401;48.882;12.598;2022-08-19T07:10:18;97225.59;;;21.50
64904;BMP280;51401;48.882;12.598;2022-08-19T07:12:44;97223.50;;;21.54
64904;BMP280;51401;48.882;12.598;2022-08-19T07:15:09;97239.13;;;21.57
64904;BMP280;51401;48.882;12.598;2022-08-19T07:17:36;97237.59;;;21.65
64904;BMP280;51401;48.882;12.598;2022-08-19T07:20:03;97239.31;;;21.68
64904;BMP280;51401;48.882;12.598;2022-08-19T07:22:28;97238.31;;;21.65
64904;BMP280;51401;48.882;12.598;2022-08-19T07:24:53;97238.03;;;21.63
64904;BMP280;51401;48.882;12.598;2022-08-19T07:27:19;97245.44;;;21.79
64904;BMP280;51401;48.882;12.598;2022-08-19T07:29:44;97248.25;;;21.90
64904;BMP280;51401;48.882;12.598;2022-08-19T07:32:11;97250.28;;;21.81
64904;BMP280;51401;48.882;12.598;2022-08-19T07:34:36;97257.09;;;21.87
64904;BMP280;51401;48.882;12.598;2022-08-19T07:37:04;97255.91;;;21.88
64904;BMP280;51401;48.882;12.598;2022-08-19T07:39:32;97255.91;;;21.88
64904;BMP280;51401;48.882;12.598;2022-08-19T07:42:00;97261.00;;;21.91
64904;BMP280;51401;48.882;12.598;2022-08-19T07:44:27;97260.47;;;21.87
64904;BMP280;51401;48.882;12.598;2022-08-19T07:46:55;97275.97;;;21.80
64904;BMP280;51401;48.882;12.598;2022-08-19T07:49:22;97271.06;;;21.93
64904;BMP280;51401;48.882;12.598;2022-08-19T07:54:18;97274.25;;;21.97
64904;BMP280;51401;48.882;12.598;2022-08-19T07:56:44;97275.19;;;21.94
64904;BMP280;51401;48.882;12.598;2022-08-19T07:59:10;97271.03;;;21.87
64904;BMP280;51401;48.882;12.598;2022-08-19T08:01:36;97273.72;;;21.93
64904;BMP280;51401;48.882;12.598;2022-08-19T08:04:02;97275.66;;;21.92
64904;BMP280;51401;48.882;12.598;2022-08-19T08:06:46;97269.91;;;21.94
64904;BMP280;51401;48.882;12.598;2022-08-19T08:09:36;97260.78;;;21.95
64904;BMP280;51401;48.882;12.598;2022-08-19T08:12:04;97267.81;;;21.98
64904;BMP280;51401;48.882;12.598;2022-08-19T08:14:34;97259.28;;;22.08
64904;BMP280;51401;48.882;12.598;2022-08-19T08:17:03;97257.47;;;22.14
64904;BMP280;51401;48.882;12.598;2022-08-19T08:19:29;97247.69;;;22.20
64904;BMP280;51401;48.882;12.598;2022-08-19T08:21:59;97249.06;;;22.15
64904;BMP280;51401;48.882;12.598;2022-08-19T08:24:26;97243.91;;;22.26
64904;BMP280;51401;48.882;12.598;2022-08-19T08:26:52;97235.34;;;22.31
64904;BMP280;51401;48.882;12.598;2022-08-19T08:29:18;97234.91;;;22.38
64904;BMP280;51401;48.882;12.598;2022-08-19T08:31:46;97225.13;;;22.44
64904;BMP280;51401;48.882;12.598;2022-08-19T08:34:13;97216.47;;;22.63
64904;BMP280;51401;48.882;12.598;2022-08-19T08:36:45;97211.59;;;22.81
64904;BMP280;51401;48.882;12.598;2022-08-19T08:39:15;97204.09;;;23.05
64904;BMP280;51401;48.882;12.598;2022-08-19T08:41:51;97202.38;;;23.32
64904;BMP280;51401;48.882;12.598;2022-08-19T08:44:22;97209.59;;;23.32
64904;BMP280;51401;48.882;12.598;2022-08-19T08:46:55;97215.81;;;23.64
64904;BMP280;51401;48.882;12.598;2022-08-19T08:49:41;97220.28;;;23.89
64904;BMP280;51401;48.882;12.598;2022-08-19T08:52:15;97223.00;;;24.05
64904;BMP280;51401;48.882;12.598;2022-08-19T08:54:46;97227.84;;;24.07
64904;BMP280;51401;48.882;12.598;2022-08-19T08:57:17;97230.06;;;24.35
64904;BMP280;51401;48.882;12.598;2022-08-19T08:59:47;97233.97;;;24.45
64904;BMP280;51401;48.882;12.598;2022-08-19T09:02:16;97229.94;;;24.71
64904;BMP280;51401;48.882;12.598;2022-08-19T09:04:42;97239.75;;;24.49
64904;BMP280;51401;48.882;12.598;2022-08-19T09:07:30;97237.28;;;24.29
64904;BMP280;51401;48.882;12.598;2022-08-19T09:10:28;97240.09;;;23.99
64904;BMP280;51401;48.882;12.598;2022-08-19T09:15:49;97251.72;;;23.71
64904;BMP280;51401;48.882;12.598;2022-08-19T09:18:17;97252.59;;;23.57
64904;BMP280;51401;48.882;12.598;2022-08-19T09:20:43;97255.22;;;23.52
64904;BMP280;51401;48.882;12.598;2022-08-19T09:23:08;97246.56;;;23.57
64904;BMP280;51401;48.882;12.598;2022-08-19T09:25:36;97248.47;;;23.51
64904;BMP280;51401;48.882;12.598;2022-08-19T09:28:02;97250.19;;;23.54
64904;BMP280;51401;48.882;12.598;2022-08-19T09:30:31;97249.19;;;23.51
64904;BMP280;51401;48.882;12.598;2022-08-19T09:32:56;97246.66;;;23.67
64904;BMP280;51401;48.882;12.598;2022-08-19T09:35:22;97249.31;;;23.73
64904;BMP280;51401;48.882;12.598;2022-08-19T09:37:48;97260.66;;;23.79
64904;BMP280;51401;48.882;12.598;2022-08-19T09:40:15;97264.28;;;23.76
64904;BMP280;51401;48.882;12.598;2022-08-19T09:42:41;97264.66;;;23.58
64904;BMP280;51401;48.882;12.598;2022-08-19T09:45:09;97268.47;;;23.57
64904;BMP280;51401;48.882;12.598;2022-08-19T09:47:35;97267.34;;;23.33
64904;BMP280;51401;48.882;12.598;2022-08-19T09:50:07;97262.97;;;23.25
64904;BMP280;51401;48.882;12.598;2022-08-19T09:52:33;97273.56;;;23.25
64904;BMP280;51401;48.882;12.598;2022-08-19T09:55:03;97258.88;;;23.29
64904;BMP280;51401;48.882;12.598;2022-08-19T09:57:29;97260.34;;;23.30
64904;BMP280;51401;48.882;12.598;2022-08-19T09:59:54;97260.13;;;23.34
64904;BMP280;51401;48.882;12.598;2022-08-19T10:02:19;97254.19;;;23.44
64904;BMP280;51401;48.882;12.598;2022-08-19T10:04:44;97256.47;;;23.56
64904;BMP280;51401;48.882;12.598;2022-08-19T10:07:29;97266.69;;;23.38
64904;BMP280;51401;48.882;12.598;2022-08-19T10:09:54;97264.50;;;23.37
64904;BMP280;51401;48.882;12.598;2022-08-19T10:12:20;97264.03;;;23.43
64904;BMP280;51401;48.882;12.598;2022-08-19T10:14:45;97256.59;;;23.42
64904;BMP280;51401;48.882;12.598;2022-08-19T10:17:11;97254.97;;;23.50
64904;BMP280;51401;48.882;12.598;2022-08-19T10:19:36;97250.22;;;23.59
64904;BMP280;51401;48.882;12.598;2022-08-19T10:22:06;97247.44;;;23.84
64904;BMP280;51401;48.882;12.598;2022-08-19T10:24:33;97238.63;;;23.98
64904;BMP280;51401;48.882;12.598;2022-08-19T10:26:59;97246.41;;;24.12
64904;BMP280;51401;48.882;12.598;2022-08-19T10:29:25;97248.09;;;24.15
64904;BMP280;51401;48.882;12.598;2022-08-19T10:31:52;97254.69;;;23.84
64904;BMP280;51401;48.882;12.598;2022-08-19T10:34:19;97259.13;;;23.62
64904;BMP280;51401;48.882;12.598;2022-08-19T10:36:44;97254.88;;;23.80
64904;BMP280;51401;48.882;12.598;2022-08-19T10:39:10;97255.00;;;24.02
64904;BMP280;51401;48.882;12.598;2022-08-19T10:41:38;97253.88;;;24.19
64904;BMP280;51401;48.882;12.598;2022-08-19T10:44:07;97242.41;;;24.49
64904;BMP280;51401;48.882;12.598;2022-08-19T10:46:36;97243.69;;;24.69
64904;BMP280;51401;48.882;12.598;2022-08-19T10:49:03;97234.28;;;25.01
64904;BMP280;51401;48.882;12.598;2022-08-19T10:51:30;97242.47;;;25.14
64904;BMP280;51401;48.882;12.598;2022-08-19T10:54:14;97241.97;;;25.37
64904;BMP280;51401;48.882;12.598;2022-08-19T10:56:39;97246.34;;;25.18
64904;BMP280;51401;48.882;12.598;2022-08-19T10:59:26;97246.13;;;25.21
64904;BMP280;51401;48.882;12.598;2022-08-19T11:01:53;97241.75;;;25.08
64904;BMP280;51401;48.882;12.598;2022-08-19T11:04:19;97251.66;;;24.91
64904;BMP280;51401;48.882;12.598;2022-08-19T11:06:46;97251.66;;;25.18
64904;BMP280;51401;48.882;12.598;2022-08-19T11:09:14;97255.91;;;25.64
64904;BMP280;51401;48.882;12.598;2022-08-19T11:11:40;97245.06;;;25.62
64904;BMP280;51401;48.882;12.598;2022-08-19T11:14:11;97241.03;;;26.12
64904;BMP280;51401;48.882;12.598;2022-08-19T11:16:37;97233.13;;;26.40
64904;BMP280;51401;48.882;12.598;2022-08-19T11:19:04;97228.97;;;26.05
64904;BMP280;51401;48.882;12.598;2022-08-19T11:21:33;97229.06;;;26.34
64904;BMP280;51401;48.882;12.598;2022-08-19T11:24:03;97223.91;;;26.47
64904;BMP280;51401;48.882;12.598;2022-08-19T11:26:30;97223.72;;;27.26
64904;BMP280;51401;48.882;12.598;2022-08-19T11:28:56;97213.47;;;27.77
64904;BMP280;51401;48.882;12.598;2022-08-19T11:31:26;97203.53;;;27.36
64904;BMP280;51401;48.882;12.598;2022-08-19T11:33:51;97212.56;;;27.04
64904;BMP280;51401;48.882;12.598;2022-08-19T11:36:20;97224.28;;;27.43
64904;BMP280;51401;48.882;12.598;2022-08-19T11:38:47;97213.84;;;28.54
64904;BMP280;51401;48.882;12.598;2022-08-19T11:41:14;97216.19;;;29.13
64904;BMP280;51401;48.882;12.598;2022-08-19T11:43:40;97210.44;;;28.04
64904;BMP280;51401;48.882;12.598;2022-08-19T11:46:08;97207.53;;;27.84
64904;BMP280;51401;48.882;12.598;2022-08-19T11:48:35;97204.13;;;27.24
64904;BMP280;51401;48.882;12.598;2022-08-19T11:51:04;97202.34;;;27.08
64904;BMP280;51401;48.882;12.598;2022-08-19T11:53:31;97195.09;;;26.56
64904;BMP280;51401;48.882;12.598;2022-08-19T11:55:56;97192.88;;;26.20
64904;BMP280;51401;48.882;12.598;2022-08-19T11:58:22;97190.84;;;25.92
64904;BMP280;51401;48.882;12.598;2022-08-19T12:00:47;97184.91;;;25.70
64904;BMP280;51401;48.882;12.598;2022-08-19T12:03:13;97183.38;;;25.90
64904;BMP280;51401;48.882;12.598;2022-08-19T12:05:39;97177.28;;;26.40
64904;BMP280;51401;48.882;12.598;2022-08-19T12:08:05;97179.97;;;26.98
64904;BMP280;51401;48.882;12.598;2022-08-19T12:10:31;97179.53;;;27.36
64904;BMP280;51401;48.882;12.598;2022-08-19T12:12:57;97179.03;;;28.15
64904;BMP280;51401;48.882;12.598;2022-08-19T12:15:23;97187.22;;;28.79
64904;BMP280;51401;48.882;12.598;2022-08-19T12:17:48;97184.56;;;28.17
64904;BMP280;51401;48.882;12.598;2022-08-19T12:20:14;97195.63;;;29.59
64904;BMP280;51401;48.882;12.598;2022-08-19T12:22:41;97189.00;;;30.26
64904;BMP280;51401;48.882;12.598;2022-08-19T12:25:08;97184.53;;;29.17
64904;BMP280;51401;48.882;12.598;2022-08-19T12:27:34;97188.03;;;29.63
64904;BMP280;51401;48.882;12.598;2022-08-19T12:30:01;97188.84;;;29.58
64904;BMP280;51401;48.882;12.598;2022-08-19T12:32:27;97193.94;;;28.55
64904;BMP280;51401;48.882;12.598;2022-08-19T12:34:52;97189.47;;;28.75
64904;BMP280;51401;48.882;12.598;2022-08-19T12:37:18;97190.88;;;28.63
64904;BMP280;51401;48.882;12.598;2022-08-19T12:39:43;97192.00;;;28.24
64904;BMP280;51401;48.882;12.598;2022-08-19T12:42:10;97188.97;;;28.15
64904;BMP280;51401;48.882;12.598;2022-08-19T12:44:38;97184.56;;;27.21
64904;BMP280;51401;48.882;12.598;2022-08-19T12:47:05;97187.06;;;27.56
64904;BMP280;51401;48.882;12.598;2022-08-19T12:49:31;97193.47;;;27.89
64904;BMP280;51401;48.882;12.598;2022-08-19T12:51:59;97199.47;;;28.44
64904;BMP280;51401;48.882;12.598;2022-08-19T12:54:26;97198.53;;;29.23
64904;BMP280;51401;48.882;12.598;2022-08-19T12:56:51;97185.28;;;28.49
64904;BMP280;51401;48.882;12.598;2022-08-19T12:59:17;97178.78;;;27.59
64904;BMP280;51401;48.882;12.598;2022-08-19T13:01:44;97180.44;;;26.97
64904;BMP280;51401;48.882;12.598;2022-08-19T13:04:10;97184.88;;;26.89
64904;BMP280;51401;48.882;12.598;2022-08-19T13:06:35;97179.22;;;26.74
64904;BMP280;51401;48.882;12.598;2022-08-19T13:09:03;97192.44;;;26.51
64904;BMP280;51401;48.882;12.598;2022-08-19T13:11:28;97197.88;;;26.35
64904;BMP280;51401;48.882;12.598;2022-08-19T13:13:57;97196.66;;;25.96
64904;BMP280;51401;48.882;12.598;2022-08-19T13:16:23;97206.66;;;26.19
64904;BMP280;51401;48.882;12.598;2022-08-19T13:18:49;97208.66;;;26.53
64904;BMP280;51401;48.882;12.598;2022-08-19T13:21:18;97194.31;;;27.61
64904;BMP280;51401;48.882;12.598;2022-08-19T13:23:46;97195.88;;;28.23
64904;BMP280;51401;48.882;12.598;2022-08-19T13:26:13;97195.31;;;28.43
64904;BMP280;51401;48.882;12.598;2022-08-19T13:28:39;97203.06;;;28.28
64904;BMP280;51401;48.882;12.598;2022-08-19T13:31:25;97202.31;;;28.46
64904;BMP280;51401;48.882;12.598;2022-08-19T13:34:09;97201.63;;;28.27
64904;BMP280;51401;48.882;12.598;2022-08-19T13:36:35;97215.03;;;27.67
64904;BMP280;51401;48.882;12.598;2022-08-19T13:39:01;97216.97;;;27.25
64904;BMP280;51401;48.882;12.598;2022-08-19T13:41:27;97214.38;;;26.91
64904;BMP280;51401;48.882;12.598;2022-08-19T13:43:53;97211.56;;;26.78
64904;BMP280;51401;48.882;12.598;2022-08-19T13:46:19;97212.72;;;26.54
64904;BMP280;51401;48.882;12.598;2022-08-19T13:48:45;97207.16;;;26.57
64904;BMP280;51401;48.882;12.598;2022-08-19T13:51:10;97208.88;;;26.84
64904;BMP280;51401;48.882;12.598;2022-08-19T13:53:37;97214.31;;;26.33
64904;BMP280;51401;48.882;12.598;2022-08-19T13:56:07;97202.91;;;26.72
64904;BMP280;51401;48.882;12.598;2022-08-19T13:58:33;97204.31;;;26.10
64904;BMP280;51401;48.882;12.598;2022-08-19T14:00:59;97194.63;;;27.05
64904;BMP280;51401;48.882;12.598;2022-08-19T14:03:25;97212.53;;;27.33
64904;BMP280;51401;48.882;12.598;2022-08-19T14:05:51;97207.47;;;28.44